Aérodrome :
LOGIN :

S'inscrire | Disclaimer

   EN    FR    IT 

 










Légende :    VFR   VFR Marginal   IFR   IFR Intensif   IFR Très Intensif
Visi : 
Plafond : 
>= 8 km
>= 3000ft
5 à 8 km
1000 à 3000 ft
1500m à 5 km
500 à 1000 ft
800 à 1500m
200 à 500 ft
< 800m
< 200 ft
Symboles :   Orages  Brouillard  Fortes neiges  Fortes précipitations  Vent > 20 kt
SIGMETs :   Divers  Orages  Givrage  Turbulence  Onde Orograph.  Cendres Volcan.






- Altitude de l'aérodrome : 83 ft
- Code IATA : LHR


EGLL - London Heathrow

DERNIER METAR :
  • 041120Z AUTO 23016KT 9999 BKN017 OVC026 20/15 Q1011 NOSIG

METARs EXPIRÉS :
  • 041050Z AUTO 24016KT 9999 BKN018 19/15 Q1011 NOSIG
  • 041020Z AUTO 23015KT 9999 BKN019 20/15 Q1011 NOSIG
  • 040950Z AUTO 23014KT 9999 BKN020 20/15 Q1011 NOSIG
  • 040920Z AUTO 25014KT 9999 OVC019 19/15 Q1010 NOSIG
  • 040850Z AUTO 24014KT 9999 BKN018 OVC027 19/15 Q1010 NOSIG

TAF TAF EGLL
Valide du 04 à 12h jusqu'au 05 à 18h UTC


041055Z 0412/0518 23013KT 9999 BKN018
PROB30
TEMPO 0412/0501 24016G26KT 8000 -RA BKN012
TEMPO 0501/0507 24018G28KT
PROB30
TEMPO 0501/0507 8000 -RA BKN012
BECMG 0507/0510 26020G32KT



MET'MAP, la Météo Aéronautique d'un coup d'oeil ! - Copyright ORBIFLY Décembre 2007 - Disclaimer

ORBIFLY MET'MAP TEAM :

Programmation & Développement : Alexandra Zaïnal
Sur une idée originale de : Baudouin d'Aumeries
Assistance à la programmation : Marc-Olivier Méhu
Soutien technique & logistique : Manuel Goepfert

Contact : metmap@orbifly.com




SOURCES & CREDITS :

   NOAA